Dison, Belgium
Current Conditions -  °F | °C
As of 7:20 AM on Monday 29 Dec 2014 (Local Time) from EBLG Reporting Station
Snow Showers Snow Showers  
Wind Chill: 20°   Ceiling: 3500
Heat Index: 30°   Visibility: 2.9mi
Dew Point: 27°   Wind: 14mph
Humidity: 86%   Direction: 260°W
Pressure: 30.48"   Gusts: NA
Location:  50.61°N, 5.85°E
Report Text: EBLG 290620Z 26012KT 4700 -SHSN SCT015 BKN035 M01/M03 Q1032 R05/550548 TEMPO 3000 -SHSN BKN006
Loading
Personal Weather Stations






























Interactive Weather Map New forecast layout! Learn more

10-Day Weather Forecast

Advertisements
Track Severe Weather on mobile